Torbat-Heydarieh, Iran
Current Conditions -  °F | °C
As of 10:30 AM on Saturday 29 Nov 2014 (Local Time) from OIMM Reporting Station
Haze Haze  
Wind Chill: 40°   Ceiling: 1500
Heat Index: 43°   Visibility: 1.5mi
Dew Point: 39°   Wind: 5mph
Humidity: 87%   Direction: 50°NE
Pressure: 30.18"   Gusts: NA
Location:  35.27°N, 59.22°E
Report Text: OIMM 290730Z 05004KT 2500 BR OVC015 06/04 Q1022 A3018
Loading
Personal Weather Stations






























Interactive Weather Map New forecast layout! Learn more

10-Day Weather Forecast

Advertisements
Track Severe Weather on mobile